sensor_id;sensor_type;location;lat;lon;timestamp;pressure;altitude;pressure_sealevel;temperature;humidity
54666;BME280;40566;50.006;36.180;2023-04-21T00:01:01;98991.69;;;8.63;71.33
54666;BME280;40566;50.006;36.180;2023-04-21T00:06:04;98979.66;;;8.62;71.49
54666;BME280;40566;50.006;36.180;2023-04-21T00:11:08;98995.25;;;8.59;71.87
54666;BME280;40566;50.006;36.180;2023-04-21T00:16:09;98972.19;;;8.54;72.11
54666;BME280;40566;50.006;36.180;2023-04-21T00:21:10;98981.63;;;8.56;72.37
54666;BME280;40566;50.006;36.180;2023-04-21T00:26:10;98967.03;;;8.54;72.67
54666;BME280;40566;50.006;36.180;2023-04-21T00:31:11;98965.34;;;8.53;72.87
54666;BME280;40566;50.006;36.180;2023-04-21T00:36:11;98962.78;;;8.53;73.04
54666;BME280;40566;50.006;36.180;2023-04-21T00:41:12;98963.66;;;8.52;73.20
54666;BME280;40566;50.006;36.180;2023-04-21T00:46:13;98961.91;;;8.53;73.31
54666;BME280;40566;50.006;36.180;2023-04-21T00:51:13;98973.91;;;8.54;73.47
54666;BME280;40566;50.006;36.180;2023-04-21T00:56:14;98960.28;;;8.50;73.79
54666;BME280;40566;50.006;36.180;2023-04-21T01:01:15;98962.81;;;8.52;73.85
54666;BME280;40566;50.006;36.180;2023-04-21T01:06:17;98949.34;;;8.44;74.30
54666;BME280;40566;50.006;36.180;2023-04-21T01:11:18;98964.50;;;8.53;74.20
54666;BME280;40566;50.006;36.180;2023-04-21T01:16:19;98939.56;;;8.53;74.22
54666;BME280;40566;50.006;36.180;2023-04-21T01:21:21;98938.06;;;8.46;74.48
54666;BME280;40566;50.006;36.180;2023-04-21T01:26:21;98944.97;;;8.46;74.60
54666;BME280;40566;50.006;36.180;2023-04-21T01:31:22;98934.75;;;8.43;74.88
54666;BME280;40566;50.006;36.180;2023-04-21T01:36:23;98927.69;;;8.49;74.90
54666;BME280;40566;50.006;36.180;2023-04-21T01:41:24;98931.09;;;8.50;74.97
54666;BME280;40566;50.006;36.180;2023-04-21T01:46:24;98919.88;;;8.51;75.06
54666;BME280;40566;50.006;36.180;2023-04-21T01:51:25;98919.25;;;8.44;75.17
54666;BME280;40566;50.006;36.180;2023-04-21T01:56:26;98922.78;;;8.40;75.58
54666;BME280;40566;50.006;36.180;2023-04-21T02:01:27;98920.22;;;8.40;75.69
54666;BME280;40566;50.006;36.180;2023-04-21T02:06:28;98917.50;;;8.45;75.67
54666;BME280;40566;50.006;36.180;2023-04-21T02:11:30;98913.25;;;8.44;75.72
54666;BME280;40566;50.006;36.180;2023-04-21T02:16:31;98917.31;;;8.51;75.91
54666;BME280;40566;50.006;36.180;2023-04-21T02:21:31;98916.44;;;8.52;75.77
54666;BME280;40566;50.006;36.180;2023-04-21T02:26:32;98918.28;;;8.47;75.95
54666;BME280;40566;50.006;36.180;2023-04-21T02:31:33;98904.50;;;8.49;76.05
54666;BME280;40566;50.006;36.180;2023-04-21T02:36:33;98918.41;;;8.44;76.28
54666;BME280;40566;50.006;36.180;2023-04-21T02:41:34;98917.41;;;8.48;76.48
54666;BME280;40566;50.006;36.180;2023-04-21T02:46:35;98911.34;;;8.49;76.39
54666;BME280;40566;50.006;36.180;2023-04-21T02:51:35;98906.41;;;8.43;76.65
54666;BME280;40566;50.006;36.180;2023-04-21T02:56:36;98906.41;;;8.43;76.89
54666;BME280;40566;50.006;36.180;2023-04-21T03:01:37;98908.91;;;8.46;76.83
54666;BME280;40566;50.006;36.180;2023-04-21T03:06:38;98909.69;;;8.48;76.91
54666;BME280;40566;50.006;36.180;2023-04-21T03:11:38;98914.94;;;8.45;77.05
54666;BME280;40566;50.006;36.180;2023-04-21T03:16:39;98915.78;;;8.45;77.13
54666;BME280;40566;50.006;36.180;2023-04-21T03:21:39;98920.03;;;8.46;77.37
54666;BME280;40566;50.006;36.180;2023-04-21T03:26:40;98920.88;;;8.47;77.13
54666;BME280;40566;50.006;36.180;2023-04-21T03:31:41;98920.94;;;8.45;77.46
54666;BME280;40566;50.006;36.180;2023-04-21T03:36:41;98926.16;;;8.44;77.62
54666;BME280;40566;50.006;36.180;2023-04-21T03:41:42;98928.53;;;8.50;77.68
54666;BME280;40566;50.006;36.180;2023-04-21T03:46:42;98926.66;;;8.55;77.64
54666;BME280;40566;50.006;36.180;2023-04-21T03:51:43;98933.38;;;8.59;77.71
54666;BME280;40566;50.006;36.180;2023-04-21T03:56:43;98940.16;;;8.62;77.91
54666;BME280;40566;50.006;36.180;2023-04-21T04:01:44;98934.81;;;8.68;77.86
54666;BME280;40566;50.006;36.180;2023-04-21T04:06:45;98938.16;;;8.70;77.74
54666;BME280;40566;50.006;36.180;2023-04-21T04:11:46;98940.72;;;8.71;77.99
54666;BME280;40566;50.006;36.180;2023-04-21T04:16:46;98936.22;;;8.77;77.87
54666;BME280;40566;50.006;36.180;2023-04-21T04:21:47;98936.03;;;8.83;78.05
54666;BME280;40566;50.006;36.180;2023-04-21T04:26:48;98928.22;;;8.84;77.90
54666;BME280;40566;50.006;36.180;2023-04-21T04:31:49;98928.09;;;8.89;78.04
54666;BME280;40566;50.006;36.180;2023-04-21T04:36:50;98937.50;;;8.90;78.10
54666;BME280;40566;50.006;36.180;2023-04-21T04:41:50;98940.00;;;8.93;78.08
54666;BME280;40566;50.006;36.180;2023-04-21T04:46:51;98938.28;;;8.92;78.15
54666;BME280;40566;50.006;36.180;2023-04-21T04:51:53;98940.03;;;8.91;78.36
54666;BME280;40566;50.006;36.180;2023-04-21T04:56:54;98943.34;;;8.95;78.27
54666;BME280;40566;50.006;36.180;2023-04-21T05:01:55;98934.72;;;8.96;78.38
54666;BME280;40566;50.006;36.180;2023-04-21T05:06:55;98935.50;;;8.98;78.29
54666;BME280;40566;50.006;36.180;2023-04-21T05:11:56;98928.34;;;9.06;78.10
54666;BME280;40566;50.006;36.180;2023-04-21T05:16:57;98934.97;;;9.13;78.00
54666;BME280;40566;50.006;36.180;2023-04-21T05:21:58;98936.66;;;9.15;78.04
54666;BME280;40566;50.006;36.180;2023-04-21T05:27:00;98936.75;;;9.11;78.22
54666;BME280;40566;50.006;36.180;2023-04-21T05:32:02;98932.50;;;9.10;78.35
54666;BME280;40566;50.006;36.180;2023-04-21T05:37:03;98933.34;;;9.11;78.40
54666;BME280;40566;50.006;36.180;2023-04-21T05:42:03;98932.56;;;9.09;78.32
54666;BME280;40566;50.006;36.180;2023-04-21T05:47:06;98939.47;;;9.08;78.43
54666;BME280;40566;50.006;36.180;2023-04-21T05:52:08;98933.63;;;9.03;78.43
54666;BME280;40566;50.006;36.180;2023-04-21T05:57:09;98938.72;;;9.05;78.59
54666;BME280;40566;50.006;36.180;2023-04-21T06:02:10;98942.09;;;9.07;78.30
54666;BME280;40566;50.006;36.180;2023-04-21T06:07:11;98942.34;;;8.99;78.53
54666;BME280;40566;50.006;36.180;2023-04-21T06:12:13;98941.44;;;9.00;78.58
54666;BME280;40566;50.006;36.180;2023-04-21T06:17:16;98926.13;;;8.96;78.56
54666;BME280;40566;50.006;36.180;2023-04-21T06:22:24;98933.00;;;8.97;78.55
54666;BME280;40566;50.006;36.180;2023-04-21T06:27:24;98950.97;;;8.98;78.53
54666;BME280;40566;50.006;36.180;2023-04-21T06:32:25;98955.25;;;8.99;78.44
54666;BME280;40566;50.006;36.180;2023-04-21T06:37:26;98949.09;;;9.03;78.34
54666;BME280;40566;50.006;36.180;2023-04-21T06:42:26;98951.63;;;9.05;78.23
54666;BME280;40566;50.006;36.180;2023-04-21T06:47:27;98960.19;;;9.05;78.16
54666;BME280;40566;50.006;36.180;2023-04-21T06:52:27;98957.53;;;9.08;77.93
54666;BME280;40566;50.006;36.180;2023-04-21T06:57:28;98954.03;;;9.09;78.19
54666;BME280;40566;50.006;36.180;2023-04-21T07:02:28;98955.72;;;9.10;78.03
54666;BME280;40566;50.006;36.180;2023-04-21T07:07:29;98960.81;;;9.12;78.28
54666;BME280;40566;50.006;36.180;2023-04-21T07:12:30;98969.28;;;9.16;78.09
54666;BME280;40566;50.006;36.180;2023-04-21T07:17:30;98970.22;;;9.15;78.10
54666;BME280;40566;50.006;36.180;2023-04-21T07:22:31;98968.28;;;9.20;78.15
54666;BME280;40566;50.006;36.180;2023-04-21T07:27:35;98955.13;;;9.27;78.01
54666;BME280;40566;50.006;36.180;2023-04-21T07:32:36;98971.34;;;9.31;77.99
54666;BME280;40566;50.006;36.180;2023-04-21T07:37:37;98970.25;;;9.38;77.88
54666;BME280;40566;50.006;36.180;2023-04-21T07:42:39;98963.03;;;9.48;78.01
54666;BME280;40566;50.006;36.180;2023-04-21T07:47:40;98962.56;;;9.60;77.59
54666;BME280;40566;50.006;36.180;2023-04-21T07:52:41;98965.53;;;9.73;77.45
54666;BME280;40566;50.006;36.180;2023-04-21T07:57:41;98952.84;;;9.90;77.13
54666;BME280;40566;50.006;36.180;2023-04-21T08:02:42;98949.91;;;10.00;76.93
54666;BME280;40566;50.006;36.180;2023-04-21T08:07:42;98957.06;;;10.15;76.79
54666;BME280;40566;50.006;36.180;2023-04-21T08:12:43;98949.97;;;10.20;76.87
54666;BME280;40566;50.006;36.180;2023-04-21T08:17:44;98951.53;;;10.24;76.71
54666;BME280;40566;50.006;36.180;2023-04-21T08:22:45;98946.34;;;10.24;76.69
54666;BME280;40566;50.006;36.180;2023-04-21T08:27:45;98942.94;;;10.24;76.74
54666;BME280;40566;50.006;36.180;2023-04-21T08:32:46;98933.81;;;10.59;75.98
54666;BME280;40566;50.006;36.180;2023-04-21T08:37:46;98935.13;;;10.90;75.16
54666;BME280;40566;50.006;36.180;2023-04-21T08:42:47;98930.97;;;11.06;74.79
54666;BME280;40566;50.006;36.180;2023-04-21T08:47:48;98930.16;;;11.25;74.22
54666;BME280;40566;50.006;36.180;2023-04-21T08:52:50;98931.00;;;11.25;74.39
54666;BME280;40566;50.006;36.180;2023-04-21T08:57:50;98931.84;;;11.26;74.35
54666;BME280;40566;50.006;36.180;2023-04-21T09:02:52;98927.91;;;11.17;74.52
54666;BME280;40566;50.006;36.180;2023-04-21T09:08:27;98918.81;;;11.08;74.50
54666;BME280;40566;50.006;36.180;2023-04-21T09:13:32;98912.03;;;11.25;74.41
54666;BME280;40566;50.006;36.180;2023-04-21T09:18:32;98925.59;;;11.50;73.51
54666;BME280;40566;50.006;36.180;2023-04-21T09:23:54;98904.16;;;11.28;73.76
54666;BME280;40566;50.006;36.180;2023-04-21T09:28:55;98909.56;;;11.03;74.53
54666;BME280;40566;50.006;36.180;2023-04-21T09:33:56;98911.97;;;10.87;74.80
54666;BME280;40566;50.006;36.180;2023-04-21T09:38:59;98900.00;;;10.84;74.91
54666;BME280;40566;50.006;36.180;2023-04-21T09:44:01;98908.59;;;10.64;75.22
54666;BME280;40566;50.006;36.180;2023-04-21T09:49:03;98915.25;;;10.70;75.15
54666;BME280;40566;50.006;36.180;2023-04-21T09:54:16;98904.09;;;11.09;74.07
54666;BME280;40566;50.006;36.180;2023-04-21T09:59:19;98900.00;;;11.81;72.16
54666;BME280;40566;50.006;36.180;2023-04-21T10:04:24;98899.19;;;12.88;68.89
54666;BME280;40566;50.006;36.180;2023-04-21T10:09:32;98895.88;;;13.68;66.92
54666;BME280;40566;50.006;36.180;2023-04-21T10:14:34;98916.88;;;13.48;68.06
54666;BME280;40566;50.006;36.180;2023-04-21T10:19:37;98900.03;;;13.22;68.45
54666;BME280;40566;50.006;36.180;2023-04-21T10:24:48;98914.47;;;12.77;69.47
54666;BME280;40566;50.006;36.180;2023-04-21T10:29:48;98926.78;;;12.19;71.10
54666;BME280;40566;50.006;36.180;2023-04-21T10:34:49;98926.47;;;11.89;71.71
54666;BME280;40566;50.006;36.180;2023-04-21T10:39:51;98917.75;;;11.71;71.84
54666;BME280;40566;50.006;36.180;2023-04-21T10:49:57;98931.09;;;11.24;72.60
54666;BME280;40566;50.006;36.180;2023-04-21T10:59:59;98941.44;;;11.03;72.69
54666;BME280;40566;50.006;36.180;2023-04-21T11:05:00;98934.91;;;10.95;72.77
54666;BME280;40566;50.006;36.180;2023-04-21T11:10:03;98927.78;;;11.00;72.62
54666;BME280;40566;50.006;36.180;2023-04-21T11:15:07;98931.25;;;11.00;72.23
54666;BME280;40566;50.006;36.180;2023-04-21T11:20:08;98955.94;;;11.07;72.21
54666;BME280;40566;50.006;36.180;2023-04-21T11:25:16;98952.19;;;11.15;71.71
54666;BME280;40566;50.006;36.180;2023-04-21T11:30:17;98953.28;;;11.09;71.87
54666;BME280;40566;50.006;36.180;2023-04-21T11:35:18;98953.34;;;11.07;71.90
54666;BME280;40566;50.006;36.180;2023-04-21T11:40:19;98962.47;;;11.16;71.70
54666;BME280;40566;50.006;36.180;2023-04-21T11:45:19;98954.56;;;11.40;71.08
54666;BME280;40566;50.006;36.180;2023-04-21T11:50:30;98941.97;;;11.70;70.31
54666;BME280;40566;50.006;36.180;2023-04-21T11:55:36;98956.84;;;11.85;69.87
54666;BME280;40566;50.006;36.180;2023-04-21T12:00:37;98959.38;;;12.06;69.32
54666;BME280;40566;50.006;36.180;2023-04-21T12:05:37;98964.72;;;12.03;69.28
54666;BME280;40566;50.006;36.180;2023-04-21T12:10:43;98951.47;;;11.90;69.34
54666;BME280;40566;50.006;36.180;2023-04-21T12:15:43;98961.19;;;12.04;68.96
54666;BME280;40566;50.006;36.180;2023-04-21T12:20:51;98945.34;;;12.10;68.51
54666;BME280;40566;50.006;36.180;2023-04-21T12:25:52;98956.75;;;11.87;69.03
54666;BME280;40566;50.006;36.180;2023-04-21T12:30:52;98956.25;;;11.60;69.21
54666;BME280;40566;50.006;36.180;2023-04-21T12:35:53;98954.84;;;11.52;69.59
54666;BME280;40566;50.006;36.180;2023-04-21T12:40:54;98950.81;;;11.66;68.91
54666;BME280;40566;50.006;36.180;2023-04-21T12:45:54;98952.63;;;12.02;68.05
54666;BME280;40566;50.006;36.180;2023-04-21T12:50:55;98949.31;;;12.36;67.32
54666;BME280;40566;50.006;36.180;2023-04-21T12:55:55;98938.63;;;12.60;66.55
54666;BME280;40566;50.006;36.180;2023-04-21T13:00:56;98938.06;;;12.72;66.30
54666;BME280;40566;50.006;36.180;2023-04-21T13:05:59;98939.56;;;12.76;65.91
54666;BME280;40566;50.006;36.180;2023-04-21T13:10:59;98933.84;;;12.69;66.14
54666;BME280;40566;50.006;36.180;2023-04-21T13:16:00;98944.53;;;12.63;66.55
54666;BME280;40566;50.006;36.180;2023-04-21T13:21:01;98942.66;;;12.30;66.98
54666;BME280;40566;50.006;36.180;2023-04-21T13:26:01;98940.25;;;11.89;68.17
54666;BME280;40566;50.006;36.180;2023-04-21T13:31:02;98944.00;;;11.63;68.84
54666;BME280;40566;50.006;36.180;2023-04-21T13:36:03;98947.50;;;11.43;68.97
54666;BME280;40566;50.006;36.180;2023-04-21T13:41:04;98949.66;;;11.34;69.24
54666;BME280;40566;50.006;36.180;2023-04-21T13:46:04;98950.75;;;11.28;69.40
54666;BME280;40566;50.006;36.180;2023-04-21T13:51:05;98950.59;;;11.31;68.83
54666;BME280;40566;50.006;36.180;2023-04-21T13:56:06;98942.94;;;11.29;68.73
54666;BME280;40566;50.006;36.180;2023-04-21T14:01:07;98939.63;;;11.26;68.74
54666;BME280;40566;50.006;36.180;2023-04-21T14:06:08;98945.84;;;11.22;68.75
54666;BME280;40566;50.006;36.180;2023-04-21T14:11:08;98951.63;;;11.08;69.41
54666;BME280;40566;50.006;36.180;2023-04-21T14:16:09;98950.03;;;10.83;69.83
54666;BME280;40566;50.006;36.180;2023-04-21T14:21:10;98949.38;;;10.58;70.43
54666;BME280;40566;50.006;36.180;2023-04-21T14:26:11;98955.34;;;10.38;70.52
54666;BME280;40566;50.006;36.180;2023-04-21T14:31:11;98967.81;;;10.26;70.88
54666;BME280;40566;50.006;36.180;2023-04-21T14:36:12;98955.97;;;10.21;70.84
54666;BME280;40566;50.006;36.180;2023-04-21T14:41:12;98957.06;;;10.15;71.16
54666;BME280;40566;50.006;36.180;2023-04-21T14:46:13;98960.66;;;10.11;71.47
54666;BME280;40566;50.006;36.180;2023-04-21T14:51:14;98973.09;;;10.01;71.43
54666;BME280;40566;50.006;36.180;2023-04-21T14:56:15;98970.91;;;9.90;71.97
54666;BME280;40566;50.006;36.180;2023-04-21T15:01:15;98970.25;;;9.85;71.99
54666;BME280;40566;50.006;36.180;2023-04-21T15:06:16;98964.19;;;9.86;72.02
54666;BME280;40566;50.006;36.180;2023-04-21T15:11:16;98969.44;;;9.83;72.30
54666;BME280;40566;50.006;36.180;2023-04-21T15:16:17;98959.34;;;9.77;72.70
54666;BME280;40566;50.006;36.180;2023-04-21T15:21:18;98966.16;;;9.80;72.58
54666;BME280;40566;50.006;36.180;2023-04-21T15:26:19;98964.75;;;9.71;72.75
54666;BME280;40566;50.006;36.180;2023-04-21T15:31:21;98963.00;;;9.71;73.00
54666;BME280;40566;50.006;36.180;2023-04-21T15:36:21;98961.50;;;9.66;73.30
54666;BME280;40566;50.006;36.180;2023-04-21T15:41:22;98958.78;;;9.69;73.36
54666;BME280;40566;50.006;36.180;2023-04-21T15:46:25;98968.34;;;9.67;73.58
54666;BME280;40566;50.006;36.180;2023-04-21T15:51:25;98958.06;;;9.65;73.69
54666;BME280;40566;50.006;36.180;2023-04-21T15:56:27;98965.19;;;9.59;73.99
54666;BME280;40566;50.006;36.180;2023-04-21T16:01:28;98962.16;;;9.47;74.21
54666;BME280;40566;50.006;36.180;2023-04-21T16:06:28;98968.31;;;9.43;74.31
54666;BME280;40566;50.006;36.180;2023-04-21T16:11:30;98962.50;;;9.38;74.39
54666;BME280;40566;50.006;36.180;2023-04-21T16:16:30;98961.81;;;9.33;74.64
54666;BME280;40566;50.006;36.180;2023-04-21T16:21:31;98965.41;;;9.29;74.81
54666;BME280;40566;50.006;36.180;2023-04-21T16:26:31;98973.25;;;9.26;74.77
54666;BME280;40566;50.006;36.180;2023-04-21T16:31:32;98961.41;;;9.20;74.57
54666;BME280;40566;50.006;36.180;2023-04-21T16:36:33;98966.84;;;9.12;74.68
54666;BME280;40566;50.006;36.180;2023-04-21T16:41:33;98968.72;;;9.07;74.83
54666;BME280;40566;50.006;36.180;2023-04-21T16:46:34;98965.44;;;9.02;75.05
54666;BME280;40566;50.006;36.180;2023-04-21T16:51:35;98958.72;;;8.98;75.15
54666;BME280;40566;50.006;36.180;2023-04-21T16:56:37;98962.19;;;8.97;75.32
54666;BME280;40566;50.006;36.180;2023-04-21T17:01:38;98964.72;;;8.99;75.20
54666;BME280;40566;50.006;36.180;2023-04-21T17:06:39;98968.91;;;9.03;75.25
54666;BME280;40566;50.006;36.180;2023-04-21T17:11:40;98963.88;;;8.98;75.20
54666;BME280;40566;50.006;36.180;2023-04-21T17:16:41;98968.94;;;9.01;75.42
54666;BME280;40566;50.006;36.180;2023-04-21T17:21:41;98971.53;;;9.01;75.45
54666;BME280;40566;50.006;36.180;2023-04-21T17:26:42;98974.97;;;9.00;75.47
54666;BME280;40566;50.006;36.180;2023-04-21T17:31:43;98970.16;;;8.91;75.63
54666;BME280;40566;50.006;36.180;2023-04-21T17:36:46;98972.84;;;8.86;75.65
54666;BME280;40566;50.006;36.180;2023-04-21T17:41:47;98967.00;;;8.83;75.84
54666;BME280;40566;50.006;36.180;2023-04-21T17:46:47;98964.28;;;8.86;75.68
54666;BME280;40566;50.006;36.180;2023-04-21T17:51:48;98977.09;;;8.89;75.71
54666;BME280;40566;50.006;36.180;2023-04-21T17:56:49;98972.22;;;8.80;75.71
54666;BME280;40566;50.006;36.180;2023-04-21T18:01:49;98968.78;;;8.81;75.77
54666;BME280;40566;50.006;36.180;2023-04-21T18:06:50;98972.19;;;8.81;75.85
54666;BME280;40566;50.006;36.180;2023-04-21T18:11:51;98970.53;;;8.79;75.74
54666;BME280;40566;50.006;36.180;2023-04-21T18:16:51;98962.78;;;8.79;75.82
54666;BME280;40566;50.006;36.180;2023-04-21T18:21:52;98966.31;;;8.76;75.83
54666;BME280;40566;50.006;36.180;2023-04-21T18:26:53;98965.56;;;8.72;76.07
54666;BME280;40566;50.006;36.180;2023-04-21T18:31:53;98962.88;;;8.77;76.02
54666;BME280;40566;50.006;36.180;2023-04-21T18:36:54;98960.50;;;8.71;76.11
54666;BME280;40566;50.006;36.180;2023-04-21T18:41:55;98956.50;;;8.61;76.32
54666;BME280;40566;50.006;36.180;2023-04-21T18:46:56;98957.25;;;8.64;76.22
54666;BME280;40566;50.006;36.180;2023-04-21T18:51:57;98939.88;;;8.71;75.89
54666;BME280;40566;50.006;36.180;2023-04-21T18:56:58;98946.03;;;8.67;75.87
54666;BME280;40566;50.006;36.180;2023-04-21T19:01:59;98941.69;;;8.67;75.87
54666;BME280;40566;50.006;36.180;2023-04-21T19:07:00;98939.91;;;8.69;75.84
54666;BME280;40566;50.006;36.180;2023-04-21T19:12:01;98930.34;;;8.73;75.74
54666;BME280;40566;50.006;36.180;2023-04-21T19:17:02;98934.59;;;8.74;75.80
54666;BME280;40566;50.006;36.180;2023-04-21T19:22:03;98932.13;;;8.71;76.14
54666;BME280;40566;50.006;36.180;2023-04-21T19:27:04;98920.25;;;8.67;76.24
54666;BME280;40566;50.006;36.180;2023-04-21T19:32:05;98910.72;;;8.69;76.13
54666;BME280;40566;50.006;36.180;2023-04-21T19:37:06;98910.78;;;8.67;76.15
54666;BME280;40566;50.006;36.180;2023-04-21T19:42:07;98912.44;;;8.68;76.13
54666;BME280;40566;50.006;36.180;2023-04-21T19:47:07;98905.50;;;8.70;76.07
54666;BME280;40566;50.006;36.180;2023-04-21T19:52:08;98912.34;;;8.71;76.01
54666;BME280;40566;50.006;36.180;2023-04-21T19:57:09;98908.06;;;8.70;76.02
54666;BME280;40566;50.006;36.180;2023-04-21T20:02:10;98901.38;;;8.65;76.16
54666;BME280;40566;50.006;36.180;2023-04-21T20:07:11;98901.38;;;8.65;76.39
54666;BME280;40566;50.006;36.180;2023-04-21T20:12:11;98903.91;;;8.66;76.37
54666;BME280;40566;50.006;36.180;2023-04-21T20:17:12;98910.91;;;8.63;76.55
54666;BME280;40566;50.006;36.180;2023-04-21T20:22:13;98901.38;;;8.65;76.46
54666;BME280;40566;50.006;36.180;2023-04-21T20:27:13;98901.34;;;8.66;76.42
54666;BME280;40566;50.006;36.180;2023-04-21T20:32:14;98904.91;;;8.62;76.49
54666;BME280;40566;50.006;36.180;2023-04-21T20:37:14;98897.28;;;8.59;76.55
54666;BME280;40566;50.006;36.180;2023-04-21T20:42:15;98895.72;;;8.55;76.63
54666;BME280;40566;50.006;36.180;2023-04-21T20:47:18;98889.66;;;8.56;76.67
54666;BME280;40566;50.006;36.180;2023-04-21T20:52:18;98886.53;;;8.46;76.98
54666;BME280;40566;50.006;36.180;2023-04-21T20:57:19;98892.53;;;8.47;77.01
54666;BME280;40566;50.006;36.180;2023-04-21T21:02:20;98883.78;;;8.51;76.86
54666;BME280;40566;50.006;36.180;2023-04-21T21:07:20;98883.78;;;8.51;76.91
54666;BME280;40566;50.006;36.180;2023-04-21T21:12:21;98882.97;;;8.50;76.99
54666;BME280;40566;50.006;36.180;2023-04-21T21:17:22;98885.50;;;8.52;77.04
54666;BME280;40566;50.006;36.180;2023-04-21T21:22:22;98880.44;;;8.49;77.13
54666;BME280;40566;50.006;36.180;2023-04-21T21:27:23;98878.75;;;8.48;77.34
54666;BME280;40566;50.006;36.180;2023-04-21T21:32:23;98876.97;;;8.50;77.35
54666;BME280;40566;50.006;36.180;2023-04-21T21:37:24;98873.59;;;8.48;77.44
54666;BME280;40566;50.006;36.180;2023-04-21T21:42:25;98876.06;;;8.51;77.36
54666;BME280;40566;50.006;36.180;2023-04-21T21:47:26;98869.94;;;8.55;77.35
54666;BME280;40566;50.006;36.180;2023-04-21T21:52:26;98877.81;;;8.50;77.47
54666;BME280;40566;50.006;36.180;2023-04-21T21:57:27;98876.28;;;8.45;77.63
54666;BME280;40566;50.006;36.180;2023-04-21T22:02:29;98877.81;;;8.50;77.61
54666;BME280;40566;50.006;36.180;2023-04-21T22:07:29;98875.19;;;8.52;77.45
54666;BME280;40566;50.006;36.180;2023-04-21T22:12:30;98875.09;;;8.55;77.43
54666;BME280;40566;50.006;36.180;2023-04-21T22:17:32;98875.03;;;8.57;77.63
54666;BME280;40566;50.006;36.180;2023-04-21T22:22:34;98861.31;;;8.56;77.85
54666;BME280;40566;50.006;36.180;2023-04-21T22:27:35;98876.06;;;8.51;77.64
54666;BME280;40566;50.006;36.180;2023-04-21T22:32:36;98871.06;;;8.46;77.81
54666;BME280;40566;50.006;36.180;2023-04-21T22:37:37;98868.84;;;8.36;77.86
54666;BME280;40566;50.006;36.180;2023-04-21T22:42:38;98875.28;;;8.49;77.85
54666;BME280;40566;50.006;36.180;2023-04-21T22:47:39;98875.47;;;8.43;78.06
54666;BME280;40566;50.006;36.180;2023-04-21T22:52:39;98871.25;;;8.42;78.06
54666;BME280;40566;50.006;36.180;2023-04-21T22:57:40;98866.66;;;8.50;77.66
54666;BME280;40566;50.006;36.180;2023-04-21T23:02:41;98871.97;;;8.45;77.91
54666;BME280;40566;50.006;36.180;2023-04-21T23:07:42;98873.69;;;8.45;77.96
54666;BME280;40566;50.006;36.180;2023-04-21T23:12:43;98878.97;;;8.42;77.97
54666;BME280;40566;50.006;36.180;2023-04-21T23:17:43;98878.97;;;8.42;78.00
54666;BME280;40566;50.006;36.180;2023-04-21T23:22:44;98871.13;;;8.45;77.89
54666;BME280;40566;50.006;36.180;2023-04-21T23:27:45;98880.56;;;8.46;77.74
54666;BME280;40566;50.006;36.180;2023-04-21T23:32:45;98873.13;;;8.35;77.89
54666;BME280;40566;50.006;36.180;2023-04-21T23:37:46;98882.44;;;8.39;77.96
54666;BME280;40566;50.006;36.180;2023-04-21T23:42:48;98870.53;;;8.35;77.85
54666;BME280;40566;50.006;36.180;2023-04-21T23:47:48;98885.75;;;8.44;77.75
54666;BME280;40566;50.006;36.180;2023-04-21T23:52:49;98891.66;;;8.48;77.54
54666;BME280;40566;50.006;36.180;2023-04-21T23:57:49;98900.41;;;8.42;77.65
